Time;durP1;ratioP1;P1;durP2;ratioP2;P2;SDS_P1;SDS_P2;PMS_P1;PMS_P2;Temp;Humidity;BMP_temperature;BMP_pressure;BME280_temperature;BME280_humidity;BME280_pressure;Samples;Min_cycle;Max_cycle;Signal;HPM_P1;HPM_P2
2023/03/27 00:00:31;;;;;;;7.30;0.50;;;4.50;99.90;;;;;;4860429;29;20830;-92
2023/03/27 00:02:57;;;;;;;7.10;0.40;;;4.20;99.90;;;;;;4859448;29;20957;-93
2023/03/27 00:05:24;;;;;;;4.65;0.30;;;4.30;99.90;;;;;;4861165;29;20934;-94
2023/03/27 00:07:51;;;;;;;6.03;0.63;;;4.00;99.90;;;;;;4858685;29;20419;-92
2023/03/27 00:10:17;;;;;;;5.85;0.40;;;3.90;99.90;;;;;;4860977;29;20423;-92
2023/03/27 00:12:43;;;;;;;6.07;0.50;;;3.90;99.90;;;;;;4874940;29;20423;-93
2023/03/27 00:15:15;;;;;;;7.85;0.50;;;3.70;99.90;;;;;;4860274;29;20423;-93
2023/03/27 00:17:43;;;;;;;5.50;0.30;;;3.80;99.90;;;;;;4860574;29;20430;-93
2023/03/27 00:20:09;;;;;;;7.05;0.60;;;3.70;99.90;;;;;;4859242;29;20850;-94
2023/03/27 00:22:35;;;;;;;5.88;0.40;;;3.80;99.90;;;;;;4860570;29;20750;-92
2023/03/27 00:25:01;;;;;;;4.57;0.30;;;3.70;99.90;;;;;;4859057;29;20502;-91
2023/03/27 00:27:26;;;;;;;6.40;0.50;;;3.90;99.90;;;;;;4860702;29;20415;-93
2023/03/27 00:29:52;;;;;;;4.40;0.30;;;3.60;99.90;;;;;;4858832;29;20426;-92
2023/03/27 00:32:19;;;;;;;6.57;0.40;;;3.60;99.90;;;;;;4860625;29;20555;-91
2023/03/27 00:34:45;;;;;;;8.60;0.50;;;3.70;99.90;;;;;;4859436;29;20918;-92
2023/03/27 00:37:11;;;;;;;6.15;0.65;;;3.60;99.90;;;;;;4859924;29;20437;-92
2023/03/27 00:39:38;;;;;;;6.15;0.75;;;3.60;99.90;;;;;;4860588;29;20435;-92
2023/03/27 00:42:04;;;;;;;8.18;0.70;;;3.70;99.90;;;;;;4858872;29;20638;-92
2023/03/27 00:44:33;;;;;;;7.10;0.50;;;3.80;99.90;;;;;;4860637;29;20411;-92
2023/03/27 00:47:02;;;;;;;7.82;0.47;;;3.60;99.90;;;;;;4858839;29;20414;-91
2023/03/27 00:49:32;;;;;;;7.68;0.60;;;3.60;99.90;;;;;;4860258;29;20411;-93
2023/03/27 00:52:01;;;;;;;6.27;0.60;;;3.50;99.90;;;;;;4859086;29;20446;-91
2023/03/27 00:54:30;;;;;;;7.30;0.63;;;3.50;99.90;;;;;;4861887;29;20499;-95
2023/03/27 00:57:00;;;;;;;6.35;0.90;;;3.50;99.90;;;;;;4863688;29;20450;-93
2023/03/27 00:59:30;;;;;;;8.02;0.82;;;3.70;99.90;;;;;;4862288;29;20482;-93
2023/03/27 01:01:59;;;;;;;8.38;0.60;;;3.40;99.90;;;;;;4863824;29;20439;-93
2023/03/27 01:04:25;;;;;;;8.43;0.40;;;3.40;99.90;;;;;;4861799;29;20474;-91
2023/03/27 01:06:54;;;;;;;7.78;0.93;;;3.40;99.90;;;;;;4863853;29;20427;-93
2023/03/27 01:09:20;;;;;;;8.52;0.47;;;3.30;99.90;;;;;;4862286;29;20934;-93
2023/03/27 01:12:13;;;;;;;8.30;0.90;;;3.40;99.90;;;;;;4862937;29;20477;-92
2023/03/27 01:15:05;;;;;;;10.93;0.80;;;3.20;99.90;;;;;;4863568;29;20451;-92
2023/03/27 01:17:55;;;;;;;7.60;0.63;;;3.20;99.90;;;;;;4815158;29;20423;-90
2023/03/27 01:20:41;;;;;;;9.57;0.80;;;3.10;99.90;;;;;;4862674;29;20426;-92
2023/03/27 01:23:52;;;;;;;9.03;0.60;;;3.00;99.90;;;;;;4863156;29;20438;-93
2023/03/27 01:26:56;;;;;;;8.15;0.60;;;3.00;99.90;;;;;;4860910;29;20423;-91
2023/03/27 01:29:40;;;;;;;7.22;0.85;;;3.00;99.90;;;;;;4862407;29;20434;-92
2023/03/27 01:32:41;;;;;;;5.93;0.80;;;3.00;99.90;;;;;;4863111;29;20434;-92
2023/03/27 01:35:41;;;;;;;5.45;0.70;;;2.90;99.90;;;;;;4861682;29;20505;-92
2023/03/27 01:38:44;;;;;;;8.15;0.40;;;2.90;99.90;;;;;;4862156;29;20824;-92
2023/03/27 01:41:23;;;;;;;4.30;0.40;;;2.90;99.90;;;;;;4863484;29;20431;-90
2023/03/27 01:44:02;;;;;;;7.80;0.45;;;3.00;99.90;;;;;;4861746;29;20481;-91
2023/03/27 01:46:40;;;;;;;6.32;0.40;;;3.00;99.90;;;;;;4862431;29;20537;-93
2023/03/27 01:49:22;;;;;;;6.72;0.60;;;3.00;99.90;;;;;;4862846;29;20423;-92
2023/03/27 01:52:05;;;;;;;5.68;0.70;;;3.10;99.90;;;;;;4861157;29;20423;-92
2023/03/27 01:54:34;;;;;;;7.15;0.50;;;3.00;99.90;;;;;;4862340;29;20423;-91
2023/03/27 01:57:29;;;;;;;8.07;0.40;;;3.10;99.90;;;;;;4861728;29;20423;-91
2023/03/27 02:00:11;;;;;;;6.72;0.80;;;3.10;99.90;;;;;;4858540;29;20419;-93
2023/03/27 02:02:40;;;;;;;6.77;0.87;;;3.10;99.90;;;;;;4862440;29;20442;-94
2023/03/27 02:05:24;;;;;;;4.50;0.30;;;3.20;99.90;;;;;;4861301;29;20470;-92
2023/03/27 02:07:56;;;;;;;8.35;0.60;;;3.20;99.90;;;;;;4862720;29;20478;-93
2023/03/27 02:10:30;;;;;;;5.13;0.60;;;3.20;99.90;;;;;;4861858;29;20430;-92
2023/03/27 02:13:03;;;;;;;6.15;0.60;;;3.20;99.90;;;;;;4861110;29;20446;-93
2023/03/27 02:15:31;;;;;;;6.75;0.60;;;3.20;99.90;;;;;;4862504;29;20466;-93
2023/03/27 02:18:08;;;;;;;4.05;0.60;;;3.20;99.90;;;;;;4860509;29;20426;-92
2023/03/27 02:20:38;;;;;;;5.28;0.45;;;3.30;99.90;;;;;;4846448;29;20794;-93
2023/03/27 02:23:05;;;;;;;6.32;0.50;;;3.30;99.30;;;;;;4861703;29;20435;-94
2023/03/27 02:25:37;;;;;;;4.57;0.57;;;3.40;95.50;;;;;;4861093;29;20447;-92
2023/03/27 02:28:32;;;;;;;4.20;0.50;;;3.50;94.90;;;;;;4862316;29;20462;-93
2023/03/27 02:31:28;;;;;;;4.50;0.50;;;3.60;94.20;;;;;;4860594;29;20434;-92
2023/03/27 02:34:24;;;;;;;5.38;0.50;;;3.60;94.50;;;;;;4861842;29;20419;-92
2023/03/27 02:36:56;;;;;;;6.43;0.80;;;3.70;95.60;;;;;;4862297;29;20434;-92
2023/03/27 02:39:27;;;;;;;6.88;0.47;;;3.60;96.20;;;;;;4860302;29;20430;-93
2023/03/27 02:42:05;;;;;;;5.32;0.70;;;3.60;97.70;;;;;;4861686;29;20446;-91
2023/03/27 02:44:50;;;;;;;6.10;0.60;;;3.50;98.70;;;;;;4861130;29;20926;-91
2023/03/27 02:47:35;;;;;;;7.95;0.90;;;3.50;99.90;;;;;;4860226;29;20426;-93
2023/03/27 02:50:09;;;;;;;9.70;0.50;;;3.40;99.90;;;;;;4861697;29;20429;-92
2023/03/27 02:52:52;;;;;;;5.72;0.75;;;3.30;99.90;;;;;;4860349;29;20434;-92
2023/03/27 02:55:25;;;;;;;7.10;0.50;;;3.30;99.70;;;;;;4861609;29;20462;-91
2023/03/27 02:57:58;;;;;;;8.55;0.65;;;3.30;98.70;;;;;;4861058;29;20431;-92
2023/03/27 03:00:26;;;;;;;5.60;0.70;;;3.50;97.00;;;;;;4860410;29;20415;-93
2023/03/27 03:03:01;;;;;;;5.00;0.40;;;3.40;94.90;;;;;;4861828;29;20438;-94
2023/03/27 03:05:27;;;;;;;4.72;1.00;;;3.40;93.40;;;;;;4859863;29;20513;-92
2023/03/27 03:07:53;;;;;;;8.97;0.67;;;3.70;91.00;;;;;;4861582;29;20599;-92
2023/03/27 03:10:20;;;;;;;5.22;0.50;;;3.80;89.30;;;;;;4860010;29;20429;-92
2023/03/27 03:12:45;;;;;;;6.25;0.45;;;3.50;87.70;;;;;;4860993;29;20778;-92
2023/03/27 03:15:11;;;;;;;8.10;0.70;;;3.40;86.70;;;;;;4860934;29;20438;-91
2023/03/27 03:17:37;;;;;;;9.07;0.73;;;3.30;85.80;;;;;;4859853;29;20430;-91
2023/03/27 03:20:04;;;;;;;7.90;0.82;;;3.30;84.80;;;;;;4861425;29;20426;-94
2023/03/27 03:22:30;;;;;;;8.38;0.70;;;3.30;86.80;;;;;;4859551;29;20474;-91
2023/03/27 03:24:56;;;;;;;7.65;0.80;;;3.20;90.00;;;;;;4861461;29;20477;-92
2023/03/27 03:27:22;;;;;;;8.75;0.73;;;3.20;92.30;;;;;;4859560;29;20522;-92
2023/03/27 03:29:48;;;;;;;8.17;0.83;;;3.00;93.80;;;;;;4861000;29;20776;-91
2023/03/27 03:32:14;;;;;;;7.03;1.20;;;2.90;96.20;;;;;;4860281;29;20430;-92
2023/03/27 03:34:40;;;;;;;6.28;0.90;;;2.80;99.90;;;;;;4860467;29;21134;-92
2023/03/27 03:37:09;;;;;;;7.95;1.10;;;2.70;99.90;;;;;;4860668;29;20473;-92
2023/03/27 03:39:35;;;;;;;9.90;0.70;;;2.70;99.90;;;;;;4859754;29;20423;-93
2023/03/27 03:42:01;;;;;;;6.00;0.65;;;2.60;99.90;;;;;;4861122;29;20454;-92
2023/03/27 03:44:27;;;;;;;6.83;0.90;;;2.60;99.90;;;;;;4859539;29;20525;-92
2023/03/27 03:46:53;;;;;;;6.67;0.80;;;2.60;99.90;;;;;;4861163;29;20950;-95
2023/03/27 03:49:19;;;;;;;5.37;0.50;;;2.70;99.90;;;;;;4859342;29;20476;-93
2023/03/27 03:51:45;;;;;;;7.33;0.80;;;2.70;99.90;;;;;;4860546;29;20425;-92
2023/03/27 03:54:11;;;;;;;7.47;0.90;;;2.60;99.90;;;;;;4860477;29;20426;-91
2023/03/27 03:56:40;;;;;;;8.47;0.70;;;2.60;99.90;;;;;;4859509;29;20914;-92
2023/03/27 03:59:07;;;;;;;8.15;0.85;;;2.60;99.90;;;;;;4860590;29;20411;-93
2023/03/27 04:01:33;;;;;;;6.85;0.60;;;2.50;99.90;;;;;;4859239;29;20498;-92
2023/03/27 04:03:59;;;;;;;9.10;1.23;;;2.40;99.90;;;;;;4861030;29;20430;-92
2023/03/27 04:06:25;;;;;;;9.20;0.80;;;2.40;99.90;;;;;;4859220;29;20425;-91
2023/03/27 04:08:51;;;;;;;13.50;1.60;;;2.40;99.90;;;;;;4860376;29;20709;-91
2023/03/27 04:11:18;;;;;;;11.27;1.52;;;2.30;99.90;;;;;;4859883;29;20766;-91
2023/03/27 04:13:43;;;;;;;11.20;1.60;;;2.60;99.90;;;;;;4860224;29;20660;-91
2023/03/27 04:16:09;;;;;;;9.13;1.13;;;2.30;99.90;;;;;;4860239;29;20529;-92
2023/03/27 04:18:38;;;;;;;8.43;1.20;;;2.30;99.90;;;;;;4859169;29;20426;-94
2023/03/27 04:21:04;;;;;;;6.45;1.13;;;2.30;99.90;;;;;;4860448;29;20400;-93
2023/03/27 04:23:30;;;;;;;11.43;0.80;;;2.30;99.90;;;;;;4859134;29;21000;-94
2023/03/27 04:26:00;;;;;;;6.05;0.90;;;2.50;99.90;;;;;;4860344;29;20510;-92
2023/03/27 04:28:26;;;;;;;9.13;0.70;;;2.60;99.90;;;;;;4860374;29;21014;-92
2023/03/27 04:30:52;;;;;;;9.75;0.68;;;2.90;99.90;;;;;;4863936;29;20434;-93
2023/03/27 04:33:18;;;;;;;7.38;0.75;;;2.90;99.90;;;;;;4863917;29;20414;-90
2023/03/27 04:35:44;;;;;;;7.63;0.60;;;3.00;99.90;;;;;;4863211;29;20490;-94
2023/03/27 04:38:12;;;;;;;6.43;0.50;;;3.10;99.90;;;;;;4864483;29;20422;-93
2023/03/27 04:40:38;;;;;;;7.30;0.85;;;3.10;99.90;;;;;;4862005;29;20457;-91
2023/03/27 04:43:04;;;;;;;8.10;0.80;;;3.20;99.90;;;;;;4864030;29;20802;-92
2023/03/27 04:45:31;;;;;;;7.55;0.60;;;3.10;99.90;;;;;;4862793;29;20415;-91
2023/03/27 04:47:57;;;;;;;6.83;0.70;;;3.20;99.90;;;;;;4863326;29;20422;-92
2023/03/27 04:50:23;;;;;;;7.45;1.00;;;3.10;99.90;;;;;;4863244;29;20443;-92
2023/03/27 04:52:50;;;;;;;6.72;0.73;;;3.00;99.90;;;;;;4863060;29;20435;-91
2023/03/27 04:55:17;;;;;;;7.90;0.80;;;3.00;99.90;;;;;;4863663;29;20431;-92
2023/03/27 04:57:46;;;;;;;6.88;0.50;;;2.90;99.90;;;;;;4862375;29;20506;-91
2023/03/27 05:00:17;;;;;;;9.27;0.73;;;3.00;99.90;;;;;;4863673;29;20505;-91
2023/03/27 05:02:47;;;;;;;8.45;0.75;;;2.90;99.90;;;;;;4861815;29;20446;-92
2023/03/27 05:05:13;;;;;;;9.35;0.68;;;2.80;99.90;;;;;;4863462;29;20426;-92
2023/03/27 05:07:43;;;;;;;7.03;0.82;;;2.80;99.90;;;;;;4862920;29;20454;-92
2023/03/27 05:10:09;;;;;;;7.38;0.60;;;2.70;99.90;;;;;;4862424;29;20817;-91
2023/03/27 05:12:35;;;;;;;5.38;0.63;;;2.70;99.90;;;;;;4863671;29;20423;-92
2023/03/27 05:15:04;;;;;;;6.57;0.43;;;2.90;99.90;;;;;;4861907;29;20454;-92
2023/03/27 05:17:31;;;;;;;5.75;0.68;;;2.70;99.90;;;;;;4863364;29;20425;-92
2023/03/27 05:19:57;;;;;;;5.57;0.40;;;2.70;99.90;;;;;;4861762;29;20477;-93
2023/03/27 05:22:22;;;;;;;7.03;0.40;;;2.70;99.90;;;;;;4863239;29;20942;-92
2023/03/27 05:24:50;;;;;;;6.20;0.55;;;2.70;99.90;;;;;;4862130;29;20920;-93
2023/03/27 05:27:16;;;;;;;5.50;0.40;;;2.80;99.90;;;;;;4862793;29;20901;-91
2023/03/27 05:29:41;;;;;;;5.25;0.40;;;2.80;99.90;;;;;;4863027;29;20454;-91
2023/03/27 05:32:07;;;;;;;7.30;0.40;;;2.80;99.90;;;;;;4861418;29;20415;-93
2023/03/27 05:34:33;;;;;;;6.77;0.50;;;2.80;99.90;;;;;;4863314;29;20748;-94
2023/03/27 05:37:04;;;;;;;4.87;0.30;;;2.90;99.90;;;;;;4861213;29;20423;-92
2023/03/27 05:39:30;;;;;;;6.97;0.40;;;2.90;99.90;;;;;;4863032;29;20423;-90
2023/03/27 05:41:55;;;;;;;6.18;0.32;;;3.00;99.90;;;;;;4861748;29;20548;-92
2023/03/27 05:44:22;;;;;;;8.43;0.60;;;3.10;99.90;;;;;;4862949;29;20425;-92
2023/03/27 05:46:48;;;;;;;6.25;0.80;;;3.00;99.90;;;;;;4862246;29;20425;-92
2023/03/27 05:49:14;;;;;;;6.03;0.47;;;3.00;99.90;;;;;;4861737;29;20427;-91
2023/03/27 05:51:40;;;;;;;5.90;0.30;;;3.00;99.90;;;;;;4863026;29;20806;-93
2023/03/27 05:54:05;;;;;;;7.03;0.70;;;3.10;99.90;;;;;;4861095;29;20421;-91
2023/03/27 05:56:31;;;;;;;10.90;0.50;;;3.20;99.90;;;;;;4862871;29;20430;-93
2023/03/27 05:58:57;;;;;;;7.55;0.50;;;3.50;99.90;;;;;;4861402;29;20419;-92
2023/03/27 06:01:22;;;;;;;5.67;0.40;;;3.20;99.90;;;;;;4862600;29;20423;-93
2023/03/27 06:03:53;;;;;;;8.43;0.30;;;3.30;99.90;;;;;;4862024;29;20463;-92
2023/03/27 06:06:19;;;;;;;9.32;0.60;;;3.30;99.90;;;;;;4861834;29;20434;-91
2023/03/27 06:08:45;;;;;;;6.90;0.53;;;3.50;99.90;;;;;;4862276;29;20419;-91
2023/03/27 06:11:12;;;;;;;5.93;0.40;;;3.60;99.90;;;;;;4861131;29;20756;-91
2023/03/27 06:13:38;;;;;;;9.45;0.52;;;3.90;99.90;;;;;;4862791;29;20839;-91
2023/03/27 06:16:04;;;;;;;9.50;0.87;;;3.80;99.90;;;;;;4860795;29;20431;-91
2023/03/27 06:18:31;;;;;;;9.35;1.00;;;3.80;99.90;;;;;;4862517;29;20450;-92
2023/03/27 06:20:57;;;;;;;10.90;1.05;;;4.00;99.90;;;;;;4860922;29;20411;-92
2023/03/27 06:23:23;;;;;;;5.45;0.60;;;3.90;99.90;;;;;;4862030;29;20818;-93
2023/03/27 06:25:50;;;;;;;9.18;0.65;;;4.00;99.90;;;;;;4862278;29;20506;-92
2023/03/27 06:28:15;;;;;;;8.13;0.80;;;3.80;99.90;;;;;;4860632;29;20470;-91
2023/03/27 06:30:41;;;;;;;6.50;0.60;;;4.00;99.90;;;;;;4861970;29;21202;-91
2023/03/27 06:33:08;;;;;;;7.10;0.80;;;4.10;99.90;;;;;;4860612;29;20770;-93
2023/03/27 06:35:35;;;;;;;6.95;0.52;;;4.20;99.90;;;;;;4862179;29;20419;-92
2023/03/27 06:38:05;;;;;;;10.25;0.90;;;4.40;99.90;;;;;;4860766;29;20437;-90
2023/03/27 06:40:34;;;;;;;10.05;0.60;;;4.50;99.90;;;;;;4862131;29;20419;-91
2023/03/27 06:43:06;;;;;;;8.68;0.73;;;4.30;99.90;;;;;;4861178;29;20470;-91
2023/03/27 06:45:41;;;;;;;6.72;0.47;;;4.40;99.90;;;;;;4861042;29;20521;-94
2023/03/27 06:48:07;;;;;;;5.13;0.60;;;4.50;99.90;;;;;;4861660;29;20433;-91
2023/03/27 06:50:34;;;;;;;8.05;0.63;;;4.60;99.90;;;;;;4859906;29;20926;-93
2023/03/27 06:53:00;;;;;;;5.03;0.50;;;4.60;99.90;;;;;;4861152;29;20418;-93
2023/03/27 06:55:28;;;;;;;6.63;0.70;;;4.70;99.90;;;;;;4860699;29;20474;-92
2023/03/27 06:57:55;;;;;;;6.20;0.45;;;4.70;99.90;;;;;;4861194;29;20933;-92
2023/03/27 07:00:23;;;;;;;8.30;0.50;;;5.00;99.90;;;;;;4860845;29;20418;-92
2023/03/27 07:03:03;;;;;;;6.85;0.63;;;4.80;99.70;;;;;;4860184;29;20450;-92
2023/03/27 07:05:32;;;;;;;8.97;1.33;;;4.80;99.20;;;;;;4861560;29;20427;-91
2023/03/27 07:07:58;;;;;;;6.93;1.17;;;4.90;99.90;;;;;;4860074;29;20485;-93
2023/03/27 07:10:24;;;;;;;6.55;0.55;;;5.10;99.90;;;;;;4861383;29;20431;-93
2023/03/27 07:12:55;;;;;;;8.73;0.90;;;5.30;99.30;;;;;;4860186;29;20419;-91
2023/03/27 07:15:22;;;;;;;11.60;4.15;;;5.60;98.60;;;;;;4860748;29;20423;-93
2023/03/27 07:17:55;;;;;;;10.40;2.58;;;6.00;98.00;;;;;;4861051;29;20526;-91
2023/03/27 07:20:22;;;;;;;4.25;0.40;;;6.30;96.20;;;;;;4859671;29;20458;-91
2023/03/27 07:22:48;;;;;;;4.25;0.30;;;5.90;97.90;;;;;;4861236;29;20483;-90
2023/03/27 07:25:14;;;;;;;3.70;0.30;;;5.40;99.30;;;;;;4859552;29;20443;-91
2023/03/27 07:27:40;;;;;;;3.78;0.40;;;4.90;99.90;;;;;;4860955;29;20419;-92
2023/03/27 07:30:10;;;;;;;5.32;0.50;;;4.30;99.90;;;;;;4859700;29;20425;-91
2023/03/27 07:32:37;;;;;;;5.53;0.40;;;4.00;99.90;;;;;;4860536;29;20514;-89
2023/03/27 07:35:05;;;;;;;7.07;0.50;;;3.70;99.90;;;;;;4860313;29;20419;-89
2023/03/27 07:37:31;;;;;;;6.45;0.45;;;3.60;99.90;;;;;;4859795;29;20418;-90
2023/03/27 07:39:57;;;;;;;7.10;0.60;;;3.40;99.90;;;;;;4861565;29;20427;-91
2023/03/27 07:42:23;;;;;;;8.67;0.80;;;3.20;99.90;;;;;;4858892;29;20462;-91
2023/03/27 07:44:49;;;;;;;5.60;0.43;;;3.00;99.90;;;;;;4861000;29;20430;-92
2023/03/27 07:47:15;;;;;;;7.27;1.47;;;2.90;99.90;;;;;;4859439;29;20435;-90
2023/03/27 07:49:41;;;;;;;10.85;5.38;;;2.70;99.90;;;;;;4860478;29;20426;-92
2023/03/27 07:52:08;;;;;;;6.88;1.27;;;2.80;99.90;;;;;;4860311;29;20772;-92
2023/03/27 07:54:34;;;;;;;7.45;0.95;;;2.80;99.90;;;;;;4860153;29;20423;-92
2023/03/27 07:57:01;;;;;;;6.32;0.50;;;3.40;99.90;;;;;;4860554;29;20994;-95
2023/03/27 07:59:28;;;;;;;7.18;1.48;;;3.50;99.90;;;;;;4859080;29;20415;-91
2023/03/27 08:01:54;;;;;;;8.93;1.80;;;3.70;99.90;;;;;;4861083;29;20446;-93
2023/03/27 08:04:20;;;;;;;8.82;1.15;;;4.00;99.90;;;;;;4859466;29;20470;-90
2023/03/27 08:06:45;;;;;;;7.55;1.02;;;4.10;99.90;;;;;;4860804;29;20465;-93
2023/03/27 08:09:11;;;;;;;6.40;0.50;;;4.50;99.90;;;;;;4859387;29;20449;-94
2023/03/27 08:11:39;;;;;;;7.50;1.08;;;4.60;99.90;;;;;;4859639;29;20415;-93
2023/03/27 08:14:06;;;;;;;8.75;1.00;;;4.90;99.90;;;;;;4860666;29;20770;-92
2023/03/27 08:16:32;;;;;;;6.32;0.85;;;5.40;99.90;;;;;;4859391;29;20411;-91
2023/03/27 08:18:59;;;;;;;8.30;0.70;;;5.70;99.90;;;;;;4860270;29;20869;-92
2023/03/27 08:21:25;;;;;;;9.77;0.93;;;5.70;99.90;;;;;;4858697;29;20914;-93
2023/03/27 08:23:50;;;;;;;6.32;0.73;;;5.50;99.90;;;;;;4860924;29;20479;-92
2023/03/27 08:26:16;;;;;;;11.17;4.80;;;4.90;99.90;;;;;;4858854;29;20415;-93
2023/03/27 08:28:42;;;;;;;8.25;3.45;;;4.70;99.90;;;;;;4860327;29;20471;-91
2023/03/27 08:31:14;;;;;;;4.63;0.60;;;4.00;99.90;;;;;;4859792;29;20426;-92
2023/03/27 08:33:41;;;;;;;2.80;0.30;;;3.70;99.90;;;;;;4858778;29;20977;-93
2023/03/27 08:36:10;;;;;;;4.25;0.52;;;3.40;99.90;;;;;;4860520;29;20740;-93
2023/03/27 08:38:38;;;;;;;6.10;1.90;;;3.30;99.90;;;;;;4858677;29;20937;-92
2023/03/27 08:41:04;;;;;;;6.67;1.57;;;3.40;99.90;;;;;;4859969;29;20462;-94
2023/03/27 08:43:43;;;;;;;13.68;6.38;;;3.60;99.90;;;;;;4858497;29;20441;-92
2023/03/27 08:46:30;;;;;;;13.67;6.57;;;3.70;99.90;;;;;;4860258;29;20434;-93
2023/03/27 08:49:13;;;;;;;15.00;7.10;;;4.00;99.90;;;;;;4860215;29;20423;-90
2023/03/27 08:51:55;;;;;;;17.10;8.43;;;4.30;99.90;;;;;;4858305;29;20437;-92
2023/03/27 08:54:35;;;;;;;8.05;2.88;;;4.40;99.90;;;;;;4860080;29;20426;-93
2023/03/27 08:57:06;;;;;;;8.32;2.03;;;4.60;99.90;;;;;;4859018;29;20858;-91
2023/03/27 08:59:33;;;;;;;8.70;2.75;;;5.10;99.90;;;;;;4859454;29;20926;-91
2023/03/27 09:02:09;;;;;;;9.07;2.83;;;5.00;99.90;;;;;;4859916;29;21025;-93
2023/03/27 09:04:54;;;;;;;8.63;3.03;;;5.30;99.90;;;;;;4858430;29;20458;-94
2023/03/27 09:07:34;;;;;;;7.43;0.70;;;5.40;99.90;;;;;;4860057;29;20419;-93
2023/03/27 09:11:01;;;;;;;7.75;2.03;;;5.60;99.90;;;;;;4858852;29;20427;-90
2023/03/27 09:13:38;;;;;;;7.07;1.15;;;5.70;99.90;;;;;;4766939;29;20439;-90
2023/03/27 09:16:11;;;;;;;4.17;0.60;;;5.80;99.90;;;;;;4770898;29;20844;-90
2023/03/27 09:18:46;;;;;;;8.43;0.50;;;5.70;99.90;;;;;;4838904;29;20423;-92
2023/03/27 09:21:34;;;;;;;4.70;0.33;;;5.90;99.90;;;;;;4862491;29;20448;-91
2023/03/27 09:24:04;;;;;;;5.57;0.60;;;6.60;99.90;;;;;;4863239;29;20449;-92
2023/03/27 09:26:34;;;;;;;7.97;1.10;;;6.60;98.80;;;;;;4861572;29;20926;-92
2023/03/27 09:29:01;;;;;;;4.68;0.50;;;6.60;97.10;;;;;;4863250;29;20961;-92
2023/03/27 09:31:34;;;;;;;7.28;1.65;;;6.90;95.10;;;;;;4861641;29;20522;-94
2023/03/27 09:34:10;;;;;;;40.10;30.95;;;6.20;96.10;;;;;;4862684;29;20901;-94
2023/03/27 09:36:37;;;;;;;3.97;0.40;;;6.60;92.10;;;;;;4863036;29;20423;-92
2023/03/27 09:39:11;;;;;;;4.73;0.83;;;6.40;87.30;;;;;;4861369;29;20475;-90
2023/03/27 09:41:50;;;;;;;50.53;34.58;;;6.40;88.40;;;;;;4863016;29;20964;-92
2023/03/27 09:44:50;;;;;;;25.30;16.63;;;6.50;84.10;;;;;;4861014;29;20430;-92
2023/03/27 09:47:38;;;;;;;7.72;1.40;;;6.70;86.00;;;;;;4858789;29;20434;-91
2023/03/27 09:50:28;;;;;;;5.07;0.50;;;7.00;96.60;;;;;;4862803;29;20415;-91
2023/03/27 09:53:12;;;;;;;8.32;1.30;;;6.80;94.70;;;;;;4861685;29;20518;-90
2023/03/27 09:55:51;;;;;;;10.38;3.00;;;6.60;98.20;;;;;;4862183;29;20518;-90
2023/03/27 09:58:26;;;;;;;33.92;23.15;;;6.70;99.90;;;;;;4862817;29;20435;-93
2023/03/27 10:01:14;;;;;;;11.15;4.70;;;6.70;94.50;;;;;;4860849;29;20439;-94
2023/03/27 10:03:52;;;;;;;13.33;7.47;;;6.70;94.30;;;;;;4862683;29;20542;-91
2023/03/27 10:06:30;;;;;;;27.70;20.85;;;6.70;93.70;;;;;;4861227;29;20869;-90
2023/03/27 10:09:05;;;;;;;16.40;11.38;;;6.90;91.60;;;;;;4861269;29;20423;-93
2023/03/27 10:11:34;;;;;;;6.63;1.00;;;7.60;81.80;;;;;;4862533;29;20439;-91
2023/03/27 10:14:08;;;;;;;3.38;0.38;;;8.00;86.10;;;;;;4860914;29;20414;-91
2023/03/27 10:16:41;;;;;;;3.95;0.65;;;8.20;78.80;;;;;;4862640;29;20447;-91
2023/03/27 10:19:20;;;;;;;5.70;1.40;;;8.20;67.20;;;;;;4861330;29;20461;-91
2023/03/27 10:21:46;;;;;;;5.68;0.60;;;8.70;69.80;;;;;;4861529;29;20431;-91
2023/03/27 10:24:30;;;;;;;4.95;0.95;;;8.80;65.10;;;;;;4861856;29;20718;-92
2023/03/27 10:26:58;;;;;;;5.60;1.30;;;9.00;65.40;;;;;;4859428;29;20419;-93
2023/03/27 10:29:33;;;;;;;5.70;0.93;;;8.70;64.70;;;;;;4862202;29;20422;-91
2023/03/27 10:32:02;;;;;;;6.53;1.40;;;8.70;64.70;;;;;;4860533;29;20509;-90
2023/03/27 10:34:36;;;;;;;4.70;0.50;;;9.00;68.20;;;;;;4861729;29;20422;-94
2023/03/27 10:37:30;;;;;;;3.35;0.40;;;9.10;66.20;;;;;;4861762;29;20486;-93
2023/03/27 10:40:01;;;;;;;5.25;0.90;;;9.50;64.00;;;;;;4860350;29;20419;-92
2023/03/27 10:42:30;;;;;;;3.03;0.43;;;9.30;63.70;;;;;;4861877;29;20534;-92
2023/03/27 10:44:56;;;;;;;2.38;0.20;;;8.40;66.60;;;;;;4860582;29;20415;-93
2023/03/27 10:47:26;;;;;;;2.37;0.10;;;7.60;72.50;;;;;;4861388;29;20494;-93
2023/03/27 10:49:59;;;;;;;1.70;0.10;;;6.70;78.20;;;;;;4861351;29;20859;-91
2023/03/27 10:52:44;;;;;;;1.50;0.10;;;6.00;81.40;;;;;;4860360;29;20840;-92
2023/03/27 10:55:32;;;;;;;1.85;0.10;;;5.70;79.00;;;;;;4862004;29;20918;-94
2023/03/27 10:58:12;;;;;;;3.13;0.20;;;5.90;80.90;;;;;;4860728;29;20507;-91
2023/03/27 11:00:42;;;;;;;5.00;0.30;;;6.50;90.90;;;;;;4861027;29;20517;-94
2023/03/27 11:03:31;;;;;;;6.47;0.90;;;7.10;93.70;;;;;;4861051;29;20439;-91
2023/03/27 11:05:59;;;;;;;7.50;2.53;;;7.80;96.40;;;;;;4859415;29;20423;-92
2023/03/27 11:08:52;;;;;;;6.32;1.27;;;8.40;88.20;;;;;;4861744;29;20421;-92
2023/03/27 11:11:35;;;;;;;7.18;2.50;;;9.00;79.40;;;;;;4860755;29;20826;-92
2023/03/27 11:14:06;;;;;;;6.90;2.13;;;9.50;70.00;;;;;;4860210;29;20835;-91
2023/03/27 11:16:42;;;;;;;3.78;0.40;;;9.80;64.20;;;;;;4861093;29;20419;-93
2023/03/27 11:19:21;;;;;;;7.03;1.93;;;9.90;58.00;;;;;;4859426;29;20913;-90
2023/03/27 11:21:55;;;;;;;9.48;3.67;;;10.00;57.50;;;;;;4861243;29;20427;-94
2023/03/27 11:24:34;;;;;;;9.25;4.60;;;9.90;57.60;;;;;;4860491;29;20422;-93
2023/03/27 11:27:08;;;;;;;6.82;1.00;;;9.80;61.70;;;;;;4859823;29;20914;-94
2023/03/27 11:30:04;;;;;;;10.82;5.22;;;8.90;67.30;;;;;;4861356;29;20434;-93
2023/03/27 11:32:57;;;;;;;6.07;0.70;;;8.20;68.30;;;;;;4852405;29;20427;-93
2023/03/27 11:35:27;;;;;;;5.22;0.98;;;8.10;70.40;;;;;;4859848;29;20423;-93
2023/03/27 11:38:00;;;;;;;10.73;3.97;;;8.20;73.50;;;;;;4860680;29;20419;-91
2023/03/27 11:40:44;;;;;;;4.50;0.40;;;8.60;69.40;;;;;;4859082;29;20930;-94
2023/03/27 11:43:12;;;;;;;3.80;0.50;;;8.80;63.80;;;;;;4860760;29;20514;-92
2023/03/27 11:46:13;;;;;;;6.75;0.73;;;9.10;60.20;;;;;;4859849;29;20485;-92
2023/03/27 11:48:46;;;;;;;5.07;0.80;;;9.30;64.30;;;;;;4824296;29;20423;-92
2023/03/27 11:51:37;;;;;;;6.20;0.50;;;9.10;59.40;;;;;;4860484;29;20415;-90
2023/03/27 11:54:29;;;;;;;7.88;1.45;;;9.40;60.90;;;;;;4859158;29;20426;-94
2023/03/27 11:56:58;;;;;;;4.03;0.68;;;10.10;59.70;;;;;;4860075;29;20578;-91
2023/03/27 11:59:41;;;;;;;3.67;0.30;;;10.30;57.70;;;;;;4860186;29;20425;-92
2023/03/27 12:02:35;;;;;;;4.95;0.40;;;10.30;58.00;;;;;;4858356;29;20442;-93
2023/03/27 12:05:35;;;;;;;6.07;1.35;;;10.30;54.40;;;;;;4860105;29;21160;-92
2023/03/27 12:08:04;;;;;;;5.45;0.73;;;10.40;52.40;;;;;;4810358;29;20459;-93
2023/03/27 12:10:33;;;;;;;4.35;0.50;;;9.80;56.50;;;;;;4858807;29;20522;-92
2023/03/27 12:13:17;;;;;;;4.40;0.50;;;9.70;55.20;;;;;;4876106;29;20445;-91
2023/03/27 12:16:05;;;;;;;8.95;1.10;;;9.50;55.80;;;;;;4858894;29;20431;-93
2023/03/27 12:19:02;;;;;;;4.30;0.43;;;9.50;55.90;;;;;;4859641;29;20430;-91
2023/03/27 12:21:33;;;;;;;8.07;2.17;;;9.40;53.80;;;;;;4860314;29;20511;-92
2023/03/27 12:24:27;;;;;;;4.55;0.50;;;9.50;56.40;;;;;;4858388;29;20962;-93
2023/03/27 12:27:05;;;;;;;7.13;1.08;;;10.00;56.10;;;;;;4860236;29;20972;-94
2023/03/27 12:29:40;;;;;;;4.93;0.57;;;10.00;60.70;;;;;;4859943;29;20431;-92
2023/03/27 12:32:11;;;;;;;5.57;0.38;;;9.10;63.00;;;;;;4858889;29;20434;-92
2023/03/27 12:34:57;;;;;;;4.93;0.60;;;8.50;67.10;;;;;;4860431;29;20418;-91
2023/03/27 12:37:41;;;;;;;4.55;0.73;;;7.90;68.90;;;;;;4858779;29;20483;-91
2023/03/27 12:40:27;;;;;;;5.53;0.63;;;7.30;73.90;;;;;;4859601;29;20732;-92
2023/03/27 12:43:02;;;;;;;4.63;0.40;;;6.50;90.60;;;;;;4860207;29;20442;-91
2023/03/27 12:45:28;;;;;;;5.17;0.30;;;6.00;95.60;;;;;;4858151;29;20462;-93
2023/03/27 12:48:09;;;;;;;5.23;0.97;;;6.10;99.90;;;;;;4860406;29;20465;-92
2023/03/27 12:50:52;;;;;;;11.27;4.17;;;6.80;99.90;;;;;;4860805;29;20435;-93
2023/03/27 12:53:24;;;;;;;8.90;2.22;;;7.60;97.00;;;;;;4862773;29;20435;-93
2023/03/27 12:56:15;;;;;;;7.40;2.00;;;8.10;95.50;;;;;;4863220;29;20427;-93
2023/03/27 12:58:43;;;;;;;6.90;0.85;;;8.70;90.40;;;;;;4861814;29;20944;-91
2023/03/27 13:01:11;;;;;;;6.47;1.25;;;9.30;80.30;;;;;;4863148;29;20510;-93
2023/03/27 13:03:58;;;;;;;11.37;5.20;;;9.80;70.40;;;;;;4861840;29;20490;-94
2023/03/27 13:06:38;;;;;;;7.17;1.23;;;9.80;67.70;;;;;;4861971;29;20426;-93
2023/03/27 13:09:30;;;;;;;7.20;2.40;;;9.40;64.80;;;;;;4863169;29;20945;-91
2023/03/27 13:12:27;;;;;;;6.75;1.85;;;9.50;63.20;;;;;;4861543;29;20431;-93
2023/03/27 13:15:18;;;;;;;7.38;1.55;;;9.20;63.30;;;;;;4862462;29;20427;-94
2023/03/27 13:18:17;;;;;;;10.15;2.70;;;9.00;57.60;;;;;;4862906;29;20966;-92
2023/03/27 13:21:17;;;;;;;6.47;1.25;;;8.80;60.40;;;;;;4861351;29;20439;-94
2023/03/27 13:24:12;;;;;;;6.28;0.95;;;9.30;61.60;;;;;;4862155;29;20446;-92
2023/03/27 13:26:57;;;;;;;9.17;2.07;;;9.60;63.20;;;;;;4862993;29;20427;-94